Time;durP1;ratioP1;P1;durP2;ratioP2;P2;SDS_P1;SDS_P2;PMS_P1;PMS_P2;Temp;Humidity;BMP_temperature;BMP_pressure;BME280_temperature;BME280_humidity;BME280_pressure;Samples;Min_cycle;Max_cycle;Signal;HPM_P1;HPM_P2
2022/03/24 00:01:42;;;;;;;18.50;11.48;;;;;;;;;;5020106;28;20040;-62
2022/03/24 00:04:08;;;;;;;23.50;11.15;;;;;;;;;;5014738;28;20077;-62
2022/03/24 00:06:34;;;;;;;14.85;11.27;;;;;;;;;;5018798;28;20094;-62
2022/03/24 00:09:00;;;;;;;20.77;11.50;;;;;;;;;;5015758;28;20025;-62
2022/03/24 00:11:26;;;;;;;20.33;11.88;;;;;;;;;;5018076;28;20053;-62
2022/03/24 00:13:52;;;;;;;17.92;11.90;;;;;;;;;;5018625;28;20395;-62
2022/03/24 00:16:19;;;;;;;26.08;11.75;;;;;;;;;;5017656;28;20029;-62
2022/03/24 00:18:45;;;;;;;22.85;11.32;;;;;;;;;;5017887;28;20124;-62
2022/03/24 00:21:11;;;;;;;23.05;12.00;;;;;;;;;;5020677;28;20022;-62
2022/03/24 00:23:37;;;;;;;17.30;11.15;;;;;;;;;;5020400;28;20533;-62
2022/03/24 00:26:03;;;;;;;17.50;11.15;;;;;;;;;;5016450;28;20037;-62
2022/03/24 00:28:31;;;;;;;17.88;12.38;;;;;;;;;;5018771;28;20030;-62
2022/03/24 00:30:57;;;;;;;19.83;11.23;;;;;;;;;;5019174;28;20025;-62
2022/03/24 00:33:24;;;;;;;17.77;10.55;;;;;;;;;;5011888;28;20057;-62
2022/03/24 00:35:50;;;;;;;19.30;11.50;;;;;;;;;;5015668;28;20120;-63
2022/03/24 00:38:16;;;;;;;23.23;11.73;;;;;;;;;;5022561;28;20057;-62
2022/03/24 00:40:43;;;;;;;19.20;11.60;;;;;;;;;;5021579;28;20022;-62
2022/03/24 00:43:09;;;;;;;19.85;11.93;;;;;;;;;;5024244;28;20064;-62
2022/03/24 00:45:35;;;;;;;16.88;12.00;;;;;;;;;;5015353;28;20467;-62
2022/03/24 00:48:02;;;;;;;20.15;11.68;;;;;;;;;;5012835;28;20033;-62
2022/03/24 00:50:28;;;;;;;21.27;12.10;;;;;;;;;;5014389;28;20026;-62
2022/03/24 00:52:54;;;;;;;14.57;11.35;;;;;;;;;;5018058;28;20099;-62
2022/03/24 00:55:20;;;;;;;16.13;10.95;;;;;;;;;;5018565;28;20432;-62
2022/03/24 00:57:49;;;;;;;19.50;10.90;;;;;;;;;;5018801;28;20069;-63
2022/03/24 01:00:16;;;;;;;15.43;11.40;;;;;;;;;;5020354;28;20033;-62
2022/03/24 01:02:43;;;;;;;20.83;11.55;;;;;;;;;;5022163;28;20021;-62
2022/03/24 01:05:13;;;;;;;21.55;12.38;;;;;;;;;;5025932;28;20026;-62
2022/03/24 01:07:39;;;;;;;14.07;11.77;;;;;;;;;;5021089;28;20410;-62
2022/03/24 01:10:06;;;;;;;17.02;11.13;;;;;;;;;;5013840;28;20164;-62
2022/03/24 01:12:32;;;;;;;16.90;10.90;;;;;;;;;;5017595;28;20032;-62
2022/03/24 01:14:58;;;;;;;19.30;11.88;;;;;;;;;;5015053;28;20029;-62
2022/03/24 01:17:26;;;;;;;19.52;10.75;;;;;;;;;;5017871;28;20045;-62
2022/03/24 01:19:52;;;;;;;21.23;11.68;;;;;;;;;;5017251;28;20083;-62
2022/03/24 01:22:18;;;;;;;15.80;10.50;;;;;;;;;;5017202;28;20125;-62
2022/03/24 01:24:45;;;;;;;17.38;11.70;;;;;;;;;;5017465;28;20040;-62
2022/03/24 01:27:14;;;;;;;21.98;11.25;;;;;;;;;;5025948;28;20029;-62
2022/03/24 01:29:40;;;;;;;23.83;11.68;;;;;;;;;;5015658;28;20384;-53
2022/03/24 01:32:07;;;;;;;22.65;11.18;;;;;;;;;;5019925;28;20021;-62
2022/03/24 01:34:34;;;;;;;17.38;10.90;;;;;;;;;;5014612;28;20475;-62
2022/03/24 01:37:00;;;;;;;17.80;11.35;;;;;;;;;;5014050;28;21788;-62
2022/03/24 01:39:26;;;;;;;19.73;10.68;;;;;;;;;;5011951;28;20183;-62
2022/03/24 01:41:53;;;;;;;14.95;11.20;;;;;;;;;;5016672;28;20109;-62
2022/03/24 01:44:21;;;;;;;18.33;10.68;;;;;;;;;;5020679;28;20038;-62
2022/03/24 01:46:54;;;;;;;21.27;10.23;;;;;;;;;;5020002;28;20041;-62
2022/03/24 01:49:20;;;;;;;16.88;10.70;;;;;;;;;;5017105;28;20375;-62
2022/03/24 01:51:46;;;;;;;14.75;10.70;;;;;;;;;;5014902;28;20032;-59
2022/03/24 01:54:12;;;;;;;19.80;9.90;;;;;;;;;;5014141;28;20159;-62
2022/03/24 01:56:40;;;;;;;13.93;9.88;;;;;;;;;;5014014;28;20026;-61
2022/03/24 01:59:07;;;;;;;16.08;9.65;;;;;;;;;;5015602;28;20034;-62
2022/03/24 02:01:37;;;;;;;13.60;8.38;;;;;;;;;;5019144;28;20033;-62
2022/03/24 02:04:04;;;;;;;17.75;9.90;;;;;;;;;;5017938;28;20654;-62
2022/03/24 02:06:34;;;;;;;16.38;8.38;;;;;;;;;;5014810;28;20040;-62
2022/03/24 02:09:00;;;;;;;13.55;8.88;;;;;;;;;;5011910;28;20087;-61
2022/03/24 02:11:30;;;;;;;15.85;8.80;;;;;;;;;;5015541;28;20029;-62
2022/03/24 02:13:57;;;;;;;13.73;8.43;;;;;;;;;;5014406;28;20577;-62
2022/03/24 02:16:34;;;;;;;16.13;8.38;;;;;;;;;;5019821;28;20095;-62
2022/03/24 02:19:31;;;;;;;16.55;9.23;;;;;;;;;;5020516;28;20079;-62
2022/03/24 02:22:10;;;;;;;12.20;7.70;;;;;;;;;;5016301;28;20082;-61
2022/03/24 02:24:37;;;;;;;12.77;8.57;;;;;;;;;;5015544;28;20029;-61
2022/03/24 02:27:03;;;;;;;18.83;8.88;;;;;;;;;;5017858;28;20078;-61
2022/03/24 02:29:29;;;;;;;10.45;7.78;;;;;;;;;;5019292;28;20029;-62
2022/03/24 02:31:55;;;;;;;17.50;8.00;;;;;;;;;;5018527;28;20489;-61
2022/03/24 02:34:37;;;;;;;10.95;7.72;;;;;;;;;;5017683;28;20037;-62
2022/03/24 02:37:15;;;;;;;9.10;7.50;;;;;;;;;;5020475;28;20044;-62
2022/03/24 02:39:42;;;;;;;11.02;7.90;;;;;;;;;;5021488;28;20089;-62
2022/03/24 02:42:14;;;;;;;11.30;8.23;;;;;;;;;;5015379;28;20483;-62
2022/03/24 02:44:42;;;;;;;20.50;9.23;;;;;;;;;;5015470;28;20030;-62
2022/03/24 02:47:10;;;;;;;9.93;7.85;;;;;;;;;;5020283;28;20034;-62
2022/03/24 02:49:37;;;;;;;14.38;7.80;;;;;;;;;;5019261;28;20391;-62
2022/03/24 02:52:04;;;;;;;8.27;7.15;;;;;;;;;;5018756;28;20057;-62
2022/03/24 02:54:31;;;;;;;12.70;7.63;;;;;;;;;;5019879;28;20026;-62
2022/03/24 02:56:57;;;;;;;14.68;7.68;;;;;;;;;;5018493;28;24872;-62
2022/03/24 02:59:23;;;;;;;9.82;7.35;;;;;;;;;;5018727;28;20034;-62
2022/03/24 03:01:58;;;;;;;12.85;7.97;;;;;;;;;;5019425;28;20030;-62
2022/03/24 03:04:23;;;;;;;10.63;7.53;;;;;;;;;;5017440;28;20079;-62
2022/03/24 03:06:49;;;;;;;14.60;7.88;;;;;;;;;;5018218;28;20418;-62
2022/03/24 03:09:16;;;;;;;11.95;6.90;;;;;;;;;;5023512;28;20018;-61
2022/03/24 03:11:45;;;;;;;9.48;7.30;;;;;;;;;;5016529;28;20022;-62
2022/03/24 03:14:12;;;;;;;11.35;7.68;;;;;;;;;;5019535;28;20030;-62
2022/03/24 03:16:38;;;;;;;13.68;7.82;;;;;;;;;;5020020;28;20029;-61
2022/03/24 03:19:04;;;;;;;9.68;7.07;;;;;;;;;;5018422;28;20029;-62
2022/03/24 03:21:31;;;;;;;15.60;7.60;;;;;;;;;;5023192;28;20171;-62
2022/03/24 03:23:56;;;;;;;14.02;7.90;;;;;;;;;;5021806;28;20368;-62
2022/03/24 03:26:23;;;;;;;13.40;7.40;;;;;;;;;;5029405;28;20094;-62
2022/03/24 03:28:52;;;;;;;13.63;6.97;;;;;;;;;;5019535;28;20033;-62
2022/03/24 03:31:19;;;;;;;10.05;6.90;;;;;;;;;;5021190;28;20052;-62
2022/03/24 03:33:46;;;;;;;12.55;6.82;;;;;;;;;;5016342;28;20112;-62
2022/03/24 03:36:12;;;;;;;12.68;7.10;;;;;;;;;;5018876;28;20044;-62
2022/03/24 03:38:38;;;;;;;10.98;6.88;;;;;;;;;;5018902;28;20689;-62
2022/03/24 03:41:04;;;;;;;10.98;6.72;;;;;;;;;;5020709;28;20061;-62
2022/03/24 03:43:30;;;;;;;10.38;6.88;;;;;;;;;;5018343;28;20069;-62
2022/03/24 03:45:56;;;;;;;9.00;6.47;;;;;;;;;;5024463;28;20037;-61
2022/03/24 03:48:22;;;;;;;10.93;7.22;;;;;;;;;;5021071;28;20035;-62
2022/03/24 03:50:48;;;;;;;10.73;6.68;;;;;;;;;;5019096;28;20037;-62
2022/03/24 03:53:14;;;;;;;9.50;6.60;;;;;;;;;;5019268;28;20037;-62
2022/03/24 03:55:40;;;;;;;10.80;6.85;;;;;;;;;;5020181;28;20036;-62
2022/03/24 03:58:06;;;;;;;14.45;6.80;;;;;;;;;;5017003;28;20038;-62
2022/03/24 04:03:35;;;;;;;7.78;6.30;;;;;;;;;;5020385;28;20105;-61
2022/03/24 04:06:09;;;;;;;9.23;6.40;;;;;;;;;;5017834;28;20025;-62
2022/03/24 04:08:36;;;;;;;8.52;6.00;;;;;;;;;;5016226;28;20386;-61
2022/03/24 04:11:03;;;;;;;8.90;6.30;;;;;;;;;;5020027;28;20121;-62
2022/03/24 04:13:49;;;;;;;10.45;6.78;;;;;;;;;;5020714;28;20030;-62
2022/03/24 04:16:34;;;;;;;8.95;6.55;;;;;;;;;;5018448;28;20474;-60
2022/03/24 04:19:19;;;;;;;13.52;7.30;;;;;;;;;;5015010;28;20042;-62
2022/03/24 04:21:48;;;;;;;9.70;6.57;;;;;;;;;;5019284;28;20021;-62
2022/03/24 04:24:14;;;;;;;9.10;6.38;;;;;;;;;;5018105;28;20411;-62
2022/03/24 04:26:40;;;;;;;11.32;6.90;;;;;;;;;;5018933;28;20474;-62
2022/03/24 04:29:25;;;;;;;13.57;7.35;;;;;;;;;;5013612;28;20038;-62
2022/03/24 04:32:11;;;;;;;10.63;7.10;;;;;;;;;;5016576;28;20397;-62
2022/03/24 04:34:57;;;;;;;9.55;7.13;;;;;;;;;;5018288;28;20041;-62
2022/03/24 04:37:43;;;;;;;9.63;6.53;;;;;;;;;;5022541;28;20099;-62
2022/03/24 04:40:29;;;;;;;9.82;6.97;;;;;;;;;;5021243;28;20037;-62
2022/03/24 04:43:15;;;;;;;11.98;6.60;;;;;;;;;;5018265;28;20033;-62
2022/03/24 04:46:01;;;;;;;11.30;6.63;;;;;;;;;;5018752;28;20487;-62
2022/03/24 04:48:45;;;;;;;12.10;6.97;;;;;;;;;;5014184;28;20053;-62
2022/03/24 04:51:43;;;;;;;9.68;6.97;;;;;;;;;;5015306;28;20065;-62
2022/03/24 04:54:09;;;;;;;9.45;7.03;;;;;;;;;;5017156;28;20076;-62
2022/03/24 04:56:34;;;;;;;14.88;7.25;;;;;;;;;;5018130;28;20034;-62
2022/03/24 04:59:00;;;;;;;11.23;7.43;;;;;;;;;;5017768;28;20149;-62
2022/03/24 05:01:25;;;;;;;11.73;8.10;;;;;;;;;;5021662;28;20064;-61
2022/03/24 05:03:51;;;;;;;10.68;7.05;;;;;;;;;;5019070;28;20110;-62
2022/03/24 05:06:17;;;;;;;12.27;7.53;;;;;;;;;;5012942;28;20463;-62
2022/03/24 05:08:42;;;;;;;10.50;7.30;;;;;;;;;;5017669;28;20025;-62
2022/03/24 05:11:08;;;;;;;10.90;7.20;;;;;;;;;;5026943;28;20114;-62
2022/03/24 05:13:33;;;;;;;9.93;7.13;;;;;;;;;;5015159;28;20536;-62
2022/03/24 05:15:59;;;;;;;12.38;7.70;;;;;;;;;;5021142;28;20041;-62
2022/03/24 05:18:24;;;;;;;14.05;7.97;;;;;;;;;;5014738;28;20079;-61
2022/03/24 05:20:51;;;;;;;14.93;7.95;;;;;;;;;;5014345;28;20045;-61
2022/03/24 05:23:16;;;;;;;9.82;7.53;;;;;;;;;;5027909;28;20516;-61
2022/03/24 05:25:44;;;;;;;11.93;7.57;;;;;;;;;;5023248;28;20030;-62
2022/03/24 05:28:10;;;;;;;10.32;7.53;;;;;;;;;;5015615;28;20088;-61
2022/03/24 05:30:36;;;;;;;18.17;8.48;;;;;;;;;;5016484;28;20029;-60
2022/03/24 05:33:03;;;;;;;9.98;7.55;;;;;;;;;;5019418;28;20029;-61
2022/03/24 05:35:29;;;;;;;11.32;7.68;;;;;;;;;;5013693;28;20399;-61
2022/03/24 05:37:55;;;;;;;11.35;7.95;;;;;;;;;;5013184;28;20033;-59
2022/03/24 05:40:21;;;;;;;14.35;7.82;;;;;;;;;;5013060;28;20029;-61
2022/03/24 05:42:47;;;;;;;12.25;8.27;;;;;;;;;;5019347;28;20033;-61
2022/03/24 05:45:12;;;;;;;17.88;8.02;;;;;;;;;;5014298;28;20369;-62
2022/03/24 05:47:38;;;;;;;19.23;8.18;;;;;;;;;;5017097;28;20025;-61
2022/03/24 05:50:04;;;;;;;13.63;7.57;;;;;;;;;;5019030;28;20037;-61
2022/03/24 05:52:30;;;;;;;11.70;7.85;;;;;;;;;;5017701;28;20048;-61
2022/03/24 05:54:55;;;;;;;11.77;7.95;;;;;;;;;;5012893;28;20033;-61
2022/03/24 05:57:21;;;;;;;15.55;8.38;;;;;;;;;;5012700;28;20029;-61
2022/03/24 05:59:46;;;;;;;15.13;8.20;;;;;;;;;;5014245;28;20037;-61
2022/03/24 06:02:13;;;;;;;10.73;7.72;;;;;;;;;;5013845;28;20403;-61
2022/03/24 06:04:42;;;;;;;11.90;8.13;;;;;;;;;;5013579;28;20038;-60
2022/03/24 06:07:10;;;;;;;11.98;7.55;;;;;;;;;;5014954;28;20061;-61
2022/03/24 06:09:36;;;;;;;14.05;8.23;;;;;;;;;;5023934;28;20040;-62
2022/03/24 06:12:02;;;;;;;12.65;7.82;;;;;;;;;;5012181;28;20034;-61
2022/03/24 06:14:28;;;;;;;10.85;7.53;;;;;;;;;;5020344;28;20038;-61
2022/03/24 06:16:53;;;;;;;13.57;7.75;;;;;;;;;;5019043;28;20040;-61
2022/03/24 06:19:19;;;;;;;13.63;8.18;;;;;;;;;;5014455;28;20053;-61
2022/03/24 06:21:44;;;;;;;9.45;7.13;;;;;;;;;;5016801;28;20406;-61
2022/03/24 06:24:11;;;;;;;10.48;7.20;;;;;;;;;;5016217;28;20033;-61
2022/03/24 06:26:37;;;;;;;11.10;7.35;;;;;;;;;;5013575;28;20026;-61
2022/03/24 06:29:03;;;;;;;12.38;7.65;;;;;;;;;;5012646;28;20034;-61
2022/03/24 06:31:30;;;;;;;10.57;7.57;;;;;;;;;;5014946;28;20493;-61
2022/03/24 06:33:56;;;;;;;9.57;7.13;;;;;;;;;;5017784;28;20042;-61
2022/03/24 06:36:22;;;;;;;17.20;7.95;;;;;;;;;;5014304;28;20022;-62
2022/03/24 06:38:48;;;;;;;11.50;7.03;;;;;;;;;;5016066;28;20097;-61
2022/03/24 06:41:14;;;;;;;13.45;7.80;;;;;;;;;;5017349;28;20032;-62
2022/03/24 06:43:41;;;;;;;15.05;8.05;;;;;;;;;;5021439;28;20040;-62
2022/03/24 06:46:07;;;;;;;13.15;8.15;;;;;;;;;;5015705;28;20430;-62
2022/03/24 06:48:32;;;;;;;12.90;8.55;;;;;;;;;;5018463;28;20030;-62
2022/03/24 06:50:58;;;;;;;9.43;7.50;;;;;;;;;;5019612;28;20049;-62
2022/03/24 06:53:23;;;;;;;10.95;8.07;;;;;;;;;;5018020;28;20037;-61
2022/03/24 06:55:49;;;;;;;12.90;8.65;;;;;;;;;;5018093;28;20033;-62
2022/03/24 06:58:14;;;;;;;10.05;7.60;;;;;;;;;;5020910;28;20486;-62
2022/03/24 07:00:40;;;;;;;12.23;7.65;;;;;;;;;;5015159;28;20026;-62
2022/03/24 07:03:05;;;;;;;11.32;7.25;;;;;;;;;;5015769;28;20521;-62
2022/03/24 07:05:31;;;;;;;12.90;8.27;;;;;;;;;;5014145;28;20030;-61
2022/03/24 07:07:57;;;;;;;14.82;7.40;;;;;;;;;;5016369;28;20092;-62
2022/03/24 07:10:22;;;;;;;9.48;7.20;;;;;;;;;;5014658;28;20033;-62
2022/03/24 07:12:49;;;;;;;8.80;7.43;;;;;;;;;;5012999;28;20032;-62
2022/03/24 07:15:15;;;;;;;15.73;6.93;;;;;;;;;;5015898;28;20054;-62
2022/03/24 07:17:41;;;;;;;8.95;7.00;;;;;;;;;;5020795;28;20493;-62
2022/03/24 07:20:07;;;;;;;11.07;6.75;;;;;;;;;;5020717;28;20033;-62
2022/03/24 07:22:37;;;;;;;9.52;6.68;;;;;;;;;;5018092;28;20068;-62
2022/03/24 07:25:05;;;;;;;6.75;6.05;;;;;;;;;;5019924;28;20061;-62
2022/03/24 07:27:30;;;;;;;8.82;6.28;;;;;;;;;;5015654;28;20025;-62
2022/03/24 07:29:56;;;;;;;7.20;6.25;;;;;;;;;;5020502;28;20041;-62
2022/03/24 07:32:21;;;;;;;11.70;6.30;;;;;;;;;;5022477;28;20391;-62
2022/03/24 07:34:47;;;;;;;9.45;6.25;;;;;;;;;;5024139;28;20030;-62
2022/03/24 07:37:13;;;;;;;9.75;6.78;;;;;;;;;;5020561;28;20105;-62
2022/03/24 07:39:39;;;;;;;10.93;7.18;;;;;;;;;;5019609;28;20034;-62
2022/03/24 07:42:05;;;;;;;13.10;6.72;;;;;;;;;;5018186;28;20037;-62
2022/03/24 07:44:31;;;;;;;9.68;6.53;;;;;;;;;;5024355;28;20030;-62
2022/03/24 07:46:56;;;;;;;11.40;7.50;;;;;;;;;;5014547;28;20091;-62
2022/03/24 07:49:22;;;;;;;8.80;6.47;;;;;;;;;;5015607;28;20613;-61
2022/03/24 07:51:47;;;;;;;8.65;6.32;;;;;;;;;;5012520;28;20033;-61
2022/03/24 07:54:13;;;;;;;8.45;6.70;;;;;;;;;;5017722;28;20041;-62
2022/03/24 07:56:39;;;;;;;8.02;6.40;;;;;;;;;;5018588;28;20509;-62
2022/03/24 07:59:05;;;;;;;10.43;6.88;;;;;;;;;;5017948;28;20612;-62
2022/03/24 08:01:33;;;;;;;8.00;6.32;;;;;;;;;;5021200;28;20347;-62
2022/03/24 08:04:00;;;;;;;7.35;5.85;;;;;;;;;;5015600;28;20037;-61
2022/03/24 08:06:28;;;;;;;12.02;6.65;;;;;;;;;;5023802;28;20087;-62
2022/03/24 08:08:54;;;;;;;11.27;7.00;;;;;;;;;;5013293;28;20036;-62
2022/03/24 08:11:22;;;;;;;9.50;6.25;;;;;;;;;;5012227;28;20030;-62
2022/03/24 08:13:52;;;;;;;7.22;6.20;;;;;;;;;;5015651;28;20108;-62
2022/03/24 08:16:18;;;;;;;7.75;6.53;;;;;;;;;;5018785;28;20042;-62
2022/03/24 08:18:43;;;;;;;9.00;6.32;;;;;;;;;;5019864;28;20032;-62
2022/03/24 08:21:09;;;;;;;12.93;6.20;;;;;;;;;;5019173;28;20654;-62
2022/03/24 08:23:35;;;;;;;8.38;6.22;;;;;;;;;;5015020;28;20037;-63
2022/03/24 08:26:00;;;;;;;7.22;5.80;;;;;;;;;;5019795;28;20144;-61
2022/03/24 08:28:26;;;;;;;10.27;6.57;;;;;;;;;;5019831;28;20034;-62
2022/03/24 08:30:52;;;;;;;12.43;6.57;;;;;;;;;;5012017;28;20399;-62
2022/03/24 08:33:18;;;;;;;9.10;5.88;;;;;;;;;;5020427;28;20474;-63
2022/03/24 08:35:43;;;;;;;10.10;5.90;;;;;;;;;;5054793;28;20092;-62
2022/03/24 08:38:12;;;;;;;8.63;6.00;;;;;;;;;;5014133;28;20744;-62
2022/03/24 08:40:38;;;;;;;13.68;7.53;;;;;;;;;;5015533;28;20030;-63
2022/03/24 08:43:05;;;;;;;11.10;7.20;;;;;;;;;;5020858;28;20029;-63
2022/03/24 08:45:31;;;;;;;12.40;5.90;;;;;;;;;;5022041;28;20033;-62
2022/03/24 08:47:57;;;;;;;8.95;5.93;;;;;;;;;;5019395;28;20033;-62
2022/03/24 08:50:23;;;;;;;7.00;6.30;;;;;;;;;;5017253;28;20459;-63
2022/03/24 08:52:49;;;;;;;10.70;6.00;;;;;;;;;;5019418;28;20619;-63
2022/03/24 08:55:16;;;;;;;8.07;5.93;;;;;;;;;;5019203;28;20057;-61
2022/03/24 08:57:42;;;;;;;7.43;5.78;;;;;;;;;;5014329;28;20057;-62
2022/03/24 09:00:15;;;;;;;7.40;5.55;;;;;;;;;;5016674;28;20026;-63
2022/03/24 09:02:46;;;;;;;6.65;5.97;;;;;;;;;;5015740;28;20046;-62
2022/03/24 09:05:13;;;;;;;9.52;5.35;;;;;;;;;;5016844;28;20446;-62
2022/03/24 09:07:40;;;;;;;7.18;6.13;;;;;;;;;;5021214;28;20034;-63
2022/03/24 09:10:07;;;;;;;8.52;6.45;;;;;;;;;;5016959;28;20047;-62
2022/03/24 09:12:35;;;;;;;14.27;8.93;;;;;;;;;;5014606;28;20490;-63
2022/03/24 09:15:05;;;;;;;23.38;10.48;;;;;;;;;;5017441;28;20117;-63
2022/03/24 09:17:31;;;;;;;21.98;11.27;;;;;;;;;;5015753;28;20026;-63
2022/03/24 09:19:57;;;;;;;23.77;13.07;;;;;;;;;;5020972;28;20026;-62
2022/03/24 09:22:22;;;;;;;38.63;20.55;;;;;;;;;;5016841;28;20075;-63
2022/03/24 09:24:48;;;;;;;32.58;17.73;;;;;;;;;;5017520;28;20038;-63
2022/03/24 09:27:15;;;;;;;33.33;17.30;;;;;;;;;;5023077;28;20112;-63
2022/03/24 09:29:41;;;;;;;35.22;16.35;;;;;;;;;;5015992;28;20492;-63
2022/03/24 09:32:12;;;;;;;42.05;16.88;;;;;;;;;;5018072;28;20038;-62
2022/03/24 09:34:41;;;;;;;36.08;17.17;;;;;;;;;;5017991;28;20470;-62
2022/03/24 09:37:07;;;;;;;35.55;16.77;;;;;;;;;;5017657;28;20044;-62
2022/03/24 09:39:33;;;;;;;24.58;16.02;;;;;;;;;;5019788;28;20048;-63
2022/03/24 09:41:59;;;;;;;39.53;15.48;;;;;;;;;;5017320;28;20068;-62
2022/03/24 09:44:25;;;;;;;30.95;14.77;;;;;;;;;;5021977;28;20044;-63
2022/03/24 09:46:51;;;;;;;26.60;13.27;;;;;;;;;;5020372;28;20107;-63
2022/03/24 09:49:17;;;;;;;12.80;9.63;;;;;;;;;;5014050;28;20060;-62
2022/03/24 09:51:43;;;;;;;22.85;11.30;;;;;;;;;;5016774;28;20473;-62
2022/03/24 09:54:11;;;;;;;21.90;11.32;;;;;;;;;;5013539;28;20049;-63
2022/03/24 09:56:38;;;;;;;15.25;9.02;;;;;;;;;;5013406;28;20045;-63
2022/03/24 09:59:05;;;;;;;18.02;9.25;;;;;;;;;;5014669;28;20487;-63
2022/03/24 10:01:30;;;;;;;10.95;6.85;;;;;;;;;;5016957;28;20041;-63
2022/03/24 10:04:04;;;;;;;12.48;7.85;;;;;;;;;;5016076;28;20033;-62
2022/03/24 10:06:31;;;;;;;17.77;7.53;;;;;;;;;;5016637;28;20060;-63
2022/03/24 10:08:57;;;;;;;19.88;10.60;;;;;;;;;;5010865;28;20034;-63
2022/03/24 10:11:26;;;;;;;23.05;10.13;;;;;;;;;;5016305;28;20474;-63
2022/03/24 10:13:54;;;;;;;11.90;6.75;;;;;;;;;;5011599;28;20037;-63
2022/03/24 10:16:32;;;;;;;11.32;8.60;;;;;;;;;;5016976;28;20479;-63
2022/03/24 10:19:01;;;;;;;14.30;6.85;;;;;;;;;;5015804;28;20056;-63
2022/03/24 10:21:29;;;;;;;8.02;5.22;;;;;;;;;;5016100;28;20491;-63
2022/03/24 10:24:02;;;;;;;5.82;4.82;;;;;;;;;;5022762;28;20109;-63
2022/03/24 10:26:48;;;;;;;10.95;5.00;;;;;;;;;;5012403;28;20037;-63
2022/03/24 10:29:22;;;;;;;8.35;5.38;;;;;;;;;;5017640;28;20091;-63
2022/03/24 10:31:57;;;;;;;9.88;4.97;;;;;;;;;;5019296;28;20030;-63
2022/03/24 10:34:38;;;;;;;9.95;6.35;;;;;;;;;;5018678;28;20681;-63
2022/03/24 10:37:07;;;;;;;8.55;6.25;;;;;;;;;;5015394;28;20045;-63
2022/03/24 10:39:34;;;;;;;13.10;5.50;;;;;;;;;;5012002;28;20030;-63
2022/03/24 10:42:15;;;;;;;11.52;5.03;;;;;;;;;;5010198;28;20387;-62
2022/03/24 10:45:04;;;;;;;6.63;4.93;;;;;;;;;;5009516;28;20462;-62
2022/03/24 10:48:13;;;;;;;7.35;6.25;;;;;;;;;;5016326;28;20074;-63
2022/03/24 10:50:41;;;;;;;10.70;5.18;;;;;;;;;;5013113;28;20042;-62
2022/03/24 10:53:10;;;;;;;7.18;5.35;;;;;;;;;;5018829;28;20053;-62
2022/03/24 10:55:36;;;;;;;8.27;5.53;;;;;;;;;;5016866;28;20073;-63
2022/03/24 10:58:07;;;;;;;11.18;6.07;;;;;;;;;;5019425;28;20045;-62
2022/03/24 11:00:33;;;;;;;6.00;5.45;;;;;;;;;;5017688;28;20034;-62
2022/03/24 11:03:00;;;;;;;7.68;5.53;;;;;;;;;;5019450;28;20038;-63
2022/03/24 11:05:26;;;;;;;11.57;5.90;;;;;;;;;;5017459;28;20509;-63
2022/03/24 11:07:53;;;;;;;15.57;6.05;;;;;;;;;;5021562;28;20037;-63
2022/03/24 11:10:20;;;;;;;9.95;5.72;;;;;;;;;;5018927;28;20029;-63
2022/03/24 11:12:49;;;;;;;9.00;5.40;;;;;;;;;;5020183;28;20021;-63
2022/03/24 11:15:16;;;;;;;12.35;5.30;;;;;;;;;;5015411;28;20017;-63
2022/03/24 11:17:42;;;;;;;11.80;5.75;;;;;;;;;;5017249;28;20372;-62
2022/03/24 11:20:09;;;;;;;12.07;5.70;;;;;;;;;;5014308;28;20041;-63
2022/03/24 11:22:51;;;;;;;9.20;5.75;;;;;;;;;;5020301;28;20491;-63
2022/03/24 11:25:18;;;;;;;11.27;6.25;;;;;;;;;;5017042;28;20041;-62
2022/03/24 11:27:44;;;;;;;18.42;6.05;;;;;;;;;;5017465;28;20036;-63
2022/03/24 11:30:12;;;;;;;9.13;5.95;;;;;;;;;;5021791;28;20152;-62
2022/03/24 11:32:40;;;;;;;6.80;6.00;;;;;;;;;;5020159;28;20021;-62
2022/03/24 11:35:08;;;;;;;8.40;5.75;;;;;;;;;;5022083;28;20490;-62
2022/03/24 11:37:35;;;;;;;8.07;5.88;;;;;;;;;;5022642;28;20037;-62
2022/03/24 11:40:11;;;;;;;10.88;5.75;;;;;;;;;;5019387;28;20030;-62
2022/03/24 11:42:47;;;;;;;6.13;5.45;;;;;;;;;;5019808;28;20125;-62
2022/03/24 11:45:25;;;;;;;13.65;5.55;;;;;;;;;;5016015;28;20053;-62
2022/03/24 11:48:05;;;;;;;8.30;5.45;;;;;;;;;;5019127;28;20045;-62
2022/03/24 11:50:52;;;;;;;6.50;5.90;;;;;;;;;;5016424;28;20042;-62
2022/03/24 11:53:32;;;;;;;7.35;5.57;;;;;;;;;;5016870;28;20180;-62
2022/03/24 11:56:03;;;;;;;9.18;5.88;;;;;;;;;;5020877;28;20112;-61
2022/03/24 11:58:30;;;;;;;16.08;6.07;;;;;;;;;;5017276;28;20430;-62
2022/03/24 12:00:57;;;;;;;6.75;5.63;;;;;;;;;;5013109;28;20037;-62
2022/03/24 12:03:54;;;;;;;7.90;5.82;;;;;;;;;;5023505;28;20364;-62
2022/03/24 12:06:46;;;;;;;9.82;5.65;;;;;;;;;;5017016;28;20057;-62
2022/03/24 12:09:15;;;;;;;11.60;5.53;;;;;;;;;;5011209;28;20493;-62
2022/03/24 12:11:50;;;;;;;9.68;5.47;;;;;;;;;;5016990;28;20058;-62
2022/03/24 12:14:20;;;;;;;5.78;4.85;;;;;;;;;;5016969;28;20054;-62
2022/03/24 12:16:51;;;;;;;6.25;5.05;;;;;;;;;;5020043;28;20434;-61
2022/03/24 12:19:32;;;;;;;7.72;4.85;;;;;;;;;;5019501;28;20737;-61
2022/03/24 12:21:59;;;;;;;9.93;4.60;;;;;;;;;;5018823;28;20128;-62
2022/03/24 12:24:34;;;;;;;6.00;5.40;;;;;;;;;;5019054;28;20032;-62
2022/03/24 12:27:05;;;;;;;7.97;5.05;;;;;;;;;;5020866;28;20033;-62
2022/03/24 12:29:30;;;;;;;7.18;5.28;;;;;;;;;;5015262;28;20080;-62
2022/03/24 12:32:11;;;;;;;6.75;5.40;;;;;;;;;;5015988;28;20206;-61
2022/03/24 12:34:39;;;;;;;7.07;5.00;;;;;;;;;;5017665;28;20517;-62
2022/03/24 12:37:31;;;;;;;9.48;4.88;;;;;;;;;;5015452;28;20129;-61
2022/03/24 12:40:06;;;;;;;10.73;5.83;;;;;;;;;;5015002;28;20029;-62
2022/03/24 12:42:54;;;;;;;7.75;5.53;;;;;;;;;;5014636;28;20082;-62
2022/03/24 12:45:22;;;;;;;10.38;5.65;;;;;;;;;;5015071;28;20080;-62
2022/03/24 12:47:49;;;;;;;11.43;5.15;;;;;;;;;;5017873;28;20033;-62
2022/03/24 12:50:20;;;;;;;9.18;5.63;;;;;;;;;;5025945;28;20120;-62
2022/03/24 12:53:03;;;;;;;15.43;5.97;;;;;;;;;;5015329;28;20041;-61
2022/03/24 12:55:40;;;;;;;11.13;6.30;;;;;;;;;;5018315;28;20045;-62
2022/03/24 12:58:09;;;;;;;8.38;6.53;;;;;;;;;;5017859;28;20083;-61
2022/03/24 13:00:40;;;;;;;11.95;6.57;;;;;;;;;;5015113;28;20025;-62
2022/03/24 13:03:08;;;;;;;7.50;6.20;;;;;;;;;;5014216;28;20038;-62
2022/03/24 13:05:35;;;;;;;8.05;6.22;;;;;;;;;;5017624;28;20037;-62
2022/03/24 13:08:03;;;;;;;10.23;6.15;;;;;;;;;;5013521;28;20501;-62
2022/03/24 13:10:32;;;;;;;12.82;5.70;;;;;;;;;;5015155;28;20026;-62
2022/03/24 13:13:03;;;;;;;9.15;5.72;;;;;;;;;;5018380;28;20067;-62
2022/03/24 13:15:31;;;;;;;15.50;6.80;;;;;;;;;;5017784;28;20025;-62
2022/03/24 13:18:00;;;;;;;11.25;6.15;;;;;;;;;;5015701;28;20403;-62
2022/03/24 13:20:33;;;;;;;13.20;6.78;;;;;;;;;;5024661;28;20072;-62
2022/03/24 13:23:08;;;;;;;8.85;6.45;;;;;;;;;;5012514;28;20038;-62
2022/03/24 13:25:34;;;;;;;18.80;6.10;;;;;;;;;;5010828;28;20037;-62
2022/03/24 13:28:00;;;;;;;11.80;6.78;;;;;;;;;;5045718;28;20041;-62
2022/03/24 13:30:29;;;;;;;13.68;6.65;;;;;;;;;;5014407;28;20034;-61
2022/03/24 13:33:03;;;;;;;11.25;6.32;;;;;;;;;;5012164;28;20038;-62
2022/03/24 13:35:37;;;;;;;10.50;6.05;;;;;;;;;;5022143;28;20097;-62
2022/03/24 13:38:06;;;;;;;9.98;6.75;;;;;;;;;;5018708;28;20045;-62
2022/03/24 13:40:40;;;;;;;11.05;6.57;;;;;;;;;;5020632;28;20061;-62
2022/03/24 13:43:07;;;;;;;6.93;6.32;;;;;;;;;;5013950;28;20060;-62
2022/03/24 13:45:34;;;;;;;8.90;6.68;;;;;;;;;;5018273;28;20737;-62
2022/03/24 13:48:11;;;;;;;9.85;6.80;;;;;;;;;;5010698;28;20029;-61
2022/03/24 13:50:39;;;;;;;9.90;6.70;;;;;;;;;;5014280;28;20034;-62
2022/03/24 13:53:35;;;;;;;10.32;6.80;;;;;;;;;;5018935;28;20050;-62
2022/03/24 13:56:03;;;;;;;8.68;6.30;;;;;;;;;;5021000;28;20041;-62
2022/03/24 13:58:30;;;;;;;13.75;6.72;;;;;;;;;;5016598;28;20104;-62
2022/03/24 14:01:25;;;;;;;9.27;6.75;;;;;;;;;;5015979;28;20041;-62
2022/03/24 14:03:52;;;;;;;13.50;7.05;;;;;;;;;;5019722;28;20038;-62
2022/03/24 14:06:19;;;;;;;10.45;6.07;;;;;;;;;;5010761;28;20112;-62
2022/03/24 14:08:50;;;;;;;11.00;6.82;;;;;;;;;;5014842;28;20486;-62
2022/03/24 14:11:28;;;;;;;10.95;6.57;;;;;;;;;;5017530;28;20036;-60
2022/03/24 14:13:56;;;;;;;10.13;6.15;;;;;;;;;;5019615;28;20554;-62
2022/03/24 14:16:23;;;;;;;13.60;6.38;;;;;;;;;;5017967;28;20475;-62
2022/03/24 14:19:26;;;;;;;11.38;6.20;;;;;;;;;;5015390;28;23043;-62
2022/03/24 14:21:55;;;;;;;14.48;6.95;;;;;;;;;;5012409;28;20386;-62
2022/03/24 14:24:29;;;;;;;12.30;5.60;;;;;;;;;;5015487;28;20112;-62
2022/03/24 14:27:11;;;;;;;9.68;6.50;;;;;;;;;;5016037;28;20042;-62
2022/03/24 14:29:39;;;;;;;;;;;;;;;;;;5014559;28;20044;-62
2022/03/24 14:32:15;;;;;;;9.20;6.82;;;;;;;;;;5015915;28;19980;-62
2022/03/24 14:34:42;;;;;;;9.63;6.43;;;;;;;;;;5017061;28;20026;-62
2022/03/24 14:37:14;;;;;;;18.25;6.07;;;;;;;;;;5011401;28;20037;-62
2022/03/24 14:39:51;;;;;;;12.32;6.38;;;;;;;;;;5015442;28;20675;-62
2022/03/24 14:42:18;;;;;;;10.50;6.32;;;;;;;;;;5016525;28;20088;-63
2022/03/24 14:44:45;;;;;;;14.18;7.07;;;;;;;;;;5011802;28;20117;-62
2022/03/24 14:47:10;;;;;;;19.27;7.00;;;;;;;;;;5014417;28;20705;-63